createdAt,value
2017-11-13T00:00:43.010Z,5.68
2017-11-13T00:01:42.654Z,5.3
2017-11-13T00:02:42.628Z,5.4
2017-11-13T00:03:42.946Z,5.4
2017-11-13T00:04:42.586Z,5.3
2017-11-13T00:05:42.905Z,5.3
2017-11-13T00:06:42.545Z,5.49
2017-11-13T00:07:42.526Z,5.11
2017-11-13T00:08:42.852Z,5.3
2017-11-13T00:09:42.820Z,5.3
2017-11-13T00:10:42.460Z,5.21
2017-11-13T00:11:42.774Z,4.74
2017-11-13T00:12:42.753Z,4.83
2017-11-13T00:13:42.734Z,4.83
2017-11-13T00:14:42.374Z,5.4
2017-11-13T00:15:42.687Z,5.21
2017-11-13T00:16:42.671Z,5.02
2017-11-13T00:17:42.313Z,5.11
2017-11-13T00:18:42.633Z,5.02
2017-11-13T00:19:42.603Z,4.74
2017-11-13T00:20:42.587Z,4.74
2017-11-13T00:21:42.573Z,4.83
2017-11-13T00:22:42.537Z,5.11
2017-11-13T00:23:42.533Z,4.93
2017-11-13T00:24:42.187Z,4.83
2017-11-13T00:25:42.489Z,5.21
2017-11-13T00:26:42.119Z,4.83
2017-11-13T00:27:42.306Z,4.93
2017-11-13T00:28:42.416Z,5.02
2017-11-13T00:29:42.055Z,4.45
2017-11-13T00:30:42.374Z,4.36
2017-11-13T00:31:42.012Z,4.45
2017-11-13T00:32:41.991Z,4.36
2017-11-13T00:33:41.973Z,4.64
2017-11-13T00:34:42.324Z,4.64
2017-11-13T00:35:42.268Z,4.45
2017-11-13T00:36:41.908Z,4.36
2017-11-13T00:37:42.221Z,4.45
2017-11-13T00:38:41.868Z,4.36
2017-11-13T00:39:42.180Z,4.26
2017-11-13T00:40:42.157Z,4.26
2017-11-13T00:41:42.134Z,4.36
2017-11-13T00:42:42.118Z,4.36
2017-11-13T00:43:42.097Z,4.45
2017-11-13T00:44:42.076Z,4.36
2017-11-13T00:45:42.051Z,4.45
2017-11-13T00:46:41.694Z,4.36
2017-11-13T00:47:41.672Z,4.55
2017-11-13T00:48:41.988Z,3.79
2017-11-13T00:49:41.973Z,3.98
2017-11-13T00:50:41.952Z,3.98
2017-11-13T00:51:41.919Z,3.88
2017-11-13T00:52:41.566Z,3.88
2017-11-13T00:53:41.549Z,3.79
2017-11-13T00:54:41.855Z,3.79
2017-11-13T00:55:41.842Z,3.69
2017-11-13T00:56:41.841Z,3.6
2017-11-13T00:57:41.791Z,3.5
2017-11-13T00:58:41.771Z,3.6
2017-11-13T00:59:41.752Z,3.6
2017-11-13T01:00:41.388Z,3.41
2017-11-13T01:01:41.703Z,3.69
2017-11-13T01:02:41.688Z,3.5
2017-11-13T01:03:41.325Z,3.41
2017-11-13T01:04:41.643Z,3.31
2017-11-13T01:05:41.634Z,3.22
2017-11-13T01:06:41.595Z,3.31
2017-11-13T01:07:41.241Z,3.41
2017-11-13T01:08:41.568Z,3.22
2017-11-13T01:09:41.528Z,3.22
2017-11-13T01:10:41.510Z,3.31
2017-11-13T01:11:41.548Z,3.22
2017-11-13T01:12:41.134Z,3.31
2017-11-13T01:13:41.108Z,3.22
2017-11-13T01:14:41.433Z,3.22
2017-11-13T01:15:41.404Z,3.31
2017-11-13T01:16:41.387Z,3.13
2017-11-13T01:17:41.027Z,3.13
2017-11-13T01:18:41.000Z,3.31
2017-11-13T01:19:41.320Z,3.31
2017-11-13T01:20:41.306Z,3.22
2017-11-13T01:21:41.272Z,3.03
2017-11-13T01:22:41.259Z,2.65
2017-11-13T01:23:40.903Z,2.65
2017-11-13T01:24:41.207Z,2.75
2017-11-13T01:25:40.853Z,2.84
2017-11-13T01:26:40.832Z,2.94
2017-11-13T01:27:40.805Z,3.03
2017-11-13T01:28:40.787Z,2.56
2017-11-13T01:29:41.109Z,2.56
2017-11-13T01:30:41.084Z,2.46
2017-11-13T01:31:40.727Z,2.46
2017-11-13T01:32:40.705Z,2.27
2017-11-13T01:33:40.678Z,2.37
2017-11-13T01:34:40.994Z,2.27
2017-11-13T01:35:40.633Z,2.27
2017-11-13T01:36:40.947Z,2.27
2017-11-13T01:37:40.926Z,2.27
2017-11-13T01:38:40.570Z,2.37
2017-11-13T01:39:40.546Z,2.46
2017-11-13T01:40:40.528Z,2.37
2017-11-13T01:41:40.510Z,2.56
2017-11-13T01:42:40.480Z,2.46
2017-11-13T01:43:40.806Z,2.56
2017-11-13T01:44:40.441Z,2.46
2017-11-13T01:45:40.755Z,1.99
2017-11-13T01:46:40.731Z,1.89
2017-11-13T01:47:40.374Z,2.08
2017-11-13T01:48:40.354Z,2.08
2017-11-13T01:49:40.678Z,2.18
2017-11-13T01:50:40.309Z,1.89
2017-11-13T01:51:40.633Z,1.89
2017-11-13T01:52:40.807Z,1.89
2017-11-13T01:53:40.594Z,1.99
2017-11-13T01:54:40.570Z,1.8
2017-11-13T01:55:40.202Z,1.7
2017-11-13T01:56:40.515Z,1.8
2017-11-13T01:57:40.161Z,2.08
2017-11-13T01:58:40.486Z,1.8
2017-11-13T01:59:40.450Z,1.89
2017-11-13T02:00:40.096Z,1.89
2017-11-13T02:01:40.076Z,1.89
2017-11-13T02:02:40.052Z,1.89
2017-11-13T02:03:40.033Z,1.7
2017-11-13T02:04:40.006Z,1.89
2017-11-13T02:05:39.986Z,1.8
2017-11-13T02:06:39.965Z,1.79
2017-11-13T02:07:40.285Z,1.89
2017-11-13T02:08:40.262Z,1.7
2017-11-13T02:09:40.237Z,1.23
2017-11-13T02:10:39.885Z,1.51
2017-11-13T02:11:40.194Z,1.8
2017-11-13T02:12:40.172Z,1.23
2017-11-13T02:13:40.157Z,1.51
2017-11-13T02:14:40.135Z,1.51
2017-11-13T02:15:40.107Z,1.42
2017-11-13T02:16:40.084Z,1.23
2017-11-13T02:17:40.077Z,1.23
2017-11-13T02:18:40.043Z,1.23
2017-11-13T02:19:40.024Z,1.32
2017-11-13T02:20:39.661Z,1.04
2017-11-13T02:21:39.641Z,0.85
2017-11-13T02:22:40.012Z,0.95
2017-11-13T02:23:39.598Z,0.85
2017-11-13T02:24:39.575Z,1.04
2017-11-13T02:25:39.557Z,0.76
2017-11-13T02:26:39.533Z,0.76
2017-11-13T02:27:39.882Z,0.76
2017-11-13T02:28:39.490Z,0.85
2017-11-13T02:29:39.806Z,0.76
2017-11-13T02:30:39.447Z,0.57
2017-11-13T02:31:39.426Z,0.66
2017-11-13T02:32:39.745Z,0.66
2017-11-13T02:33:39.723Z,0.57
2017-11-13T02:34:39.698Z,0.57
2017-11-13T02:35:39.680Z,0.47
2017-11-13T02:36:39.667Z,0.57
2017-11-13T02:37:39.687Z,0.76
2017-11-13T02:38:39.278Z,0.66
2017-11-13T02:39:39.629Z,0.38
2017-11-13T02:40:39.570Z,0.38
2017-11-13T02:41:39.208Z,0.28
2017-11-13T02:42:39.575Z,0.47
2017-11-13T02:43:39.508Z,0.28
2017-11-13T02:44:39.481Z,0.47
2017-11-13T02:45:39.127Z,0.47
2017-11-13T02:46:39.486Z,0.47
2017-11-13T02:47:39.081Z,0.47
2017-11-13T02:48:39.058Z,0.57
2017-11-13T02:49:39.375Z,0.47
2017-11-13T02:50:39.014Z,0.47
2017-11-13T02:51:39.336Z,0.47
2017-11-13T02:52:39.309Z,0.28
2017-11-13T02:53:39.288Z,0
2017-11-13T02:54:39.284Z,0
2017-11-13T02:55:39.258Z,0.28
2017-11-13T02:56:39.228Z,0.47
2017-11-13T02:57:39.201Z,0.19
2017-11-13T02:58:39.188Z,0.28
2017-11-13T02:59:39.164Z,0.28
2017-11-13T03:00:38.813Z,0.76
2017-11-13T03:01:39.121Z,0.66
2017-11-13T03:02:38.769Z,0.28
2017-11-13T03:03:39.074Z,0.85
2017-11-13T03:04:39.051Z,0.47
2017-11-13T03:05:38.706Z,0.38
2017-11-13T03:06:39.012Z,0.66
2017-11-13T03:07:38.991Z,0.28
2017-11-13T03:08:38.969Z,0.38
2017-11-13T03:09:38.946Z,0.38
2017-11-13T03:10:38.589Z,0.57
2017-11-13T03:11:38.900Z,0.76
2017-11-13T03:12:38.547Z,0.28
2017-11-13T03:13:38.523Z,0.28
2017-11-13T03:14:38.504Z,0.28
2017-11-13T03:15:38.482Z,0.28
2017-11-13T03:16:38.823Z,0.19
2017-11-13T03:17:38.442Z,0.28
2017-11-13T03:18:38.420Z,0.38
2017-11-13T03:19:38.732Z,0.38
2017-11-13T03:20:38.713Z,0.38
2017-11-13T03:21:38.688Z,0.09
2017-11-13T03:22:38.672Z,0
2017-11-13T03:23:38.359Z,0
2017-11-13T03:24:38.627Z,0
2017-11-13T03:25:38.607Z,0
2017-11-13T03:26:38.583Z,0
2017-11-13T03:27:38.227Z,0
2017-11-13T03:28:38.536Z,0
2017-11-13T03:29:38.186Z,0
2017-11-13T03:30:38.164Z,0
2017-11-13T03:31:38.484Z,0
2017-11-13T03:32:38.461Z,0
2017-11-13T03:33:38.148Z,0
2017-11-13T03:34:38.077Z,0
2017-11-13T03:35:38.054Z,0
2017-11-13T03:36:38.375Z,0
2017-11-13T03:37:38.355Z,0
2017-11-13T03:38:37.988Z,0
2017-11-13T03:39:37.968Z,0
2017-11-13T03:40:38.284Z,0
2017-11-13T03:41:38.266Z,0
2017-11-13T03:42:37.909Z,0
2017-11-13T03:43:38.225Z,0
2017-11-13T03:44:37.863Z,0
2017-11-13T03:45:37.841Z,0
2017-11-13T03:46:38.153Z,0
2017-11-13T03:47:38.135Z,0
2017-11-13T03:48:38.115Z,0
2017-11-13T03:49:37.765Z,0
2017-11-13T03:50:38.087Z,0
2017-11-13T03:51:38.061Z,0
2017-11-13T03:53:37.677Z,0.28
2017-11-13T03:54:38.032Z,0.76
2017-11-13T03:55:37.633Z,0.66
2017-11-13T03:56:37.611Z,0.76
2017-11-13T03:57:37.596Z,0.95
2017-11-13T03:58:37.909Z,0.76
2017-11-13T03:59:37.883Z,1.04
2017-11-13T04:00:37.909Z,1.04
2017-11-13T04:01:37.505Z,1.32
2017-11-13T04:02:37.493Z,1.42
2017-11-13T04:03:37.464Z,1.8
2017-11-13T04:04:37.443Z,2.27
2017-11-13T04:05:37.423Z,2.27
2017-11-13T04:06:37.740Z,2.27
2017-11-13T04:07:37.382Z,2.66
2017-11-13T04:08:37.367Z,2.37
2017-11-13T04:09:37.678Z,2.27
2017-11-13T04:10:37.652Z,2.47
2017-11-13T04:11:37.629Z,2.47
2017-11-13T04:12:37.612Z,2.47
2017-11-13T04:13:37.593Z,2.66
2017-11-13T04:14:37.567Z,2.66
2017-11-13T04:15:37.211Z,2.56
2017-11-13T04:16:37.212Z,3.31
2017-11-13T04:17:37.500Z,3.22
2017-11-13T04:18:37.148Z,3.13
2017-11-13T04:19:37.123Z,3.22
2017-11-13T04:20:37.454Z,3.22
2017-11-13T04:21:37.418Z,3.03
2017-11-13T04:22:37.068Z,3.22
2017-11-13T04:23:37.379Z,3.22
2017-11-13T04:24:37.022Z,3.13
2017-11-13T04:25:37.005Z,3.03
2017-11-13T04:26:36.979Z,3.22
2017-11-13T04:27:36.956Z,3.22
2017-11-13T04:28:37.272Z,3.41
2017-11-13T04:29:36.914Z,3.13
2017-11-13T04:30:37.231Z,2.46
2017-11-13T04:31:37.226Z,2.37
2017-11-13T04:32:36.855Z,1.89
2017-11-13T04:33:37.174Z,1.7
2017-11-13T04:34:37.147Z,1.61
2017-11-13T04:35:37.122Z,1.7
2017-11-13T04:36:36.769Z,1.7
2017-11-13T04:37:36.751Z,1.61
2017-11-13T04:38:36.728Z,1.61
2017-11-13T04:39:36.704Z,1.32
2017-11-13T04:40:37.025Z,1.61
2017-11-13T04:41:36.999Z,1.61
2017-11-13T04:42:36.979Z,1.51
2017-11-13T04:43:36.955Z,1.51
2017-11-13T04:44:36.648Z,1.42
2017-11-13T04:45:36.911Z,1.42
2017-11-13T04:46:36.906Z,1.61
2017-11-13T04:47:36.552Z,1.51
2017-11-13T04:48:36.858Z,1.32
2017-11-13T04:49:36.494Z,1.32
2017-11-13T04:50:36.810Z,1.61
2017-11-13T04:51:36.784Z,1.51
2017-11-13T04:52:36.761Z,1.32
2017-11-13T04:53:36.742Z,1.32
2017-11-13T04:54:36.435Z,0.95
2017-11-13T04:55:36.698Z,1.14
2017-11-13T04:56:36.684Z,0.95
2017-11-13T04:57:36.323Z,0.95
2017-11-13T04:58:36.647Z,0.85
2017-11-13T04:59:36.621Z,0.95
2017-11-13T05:00:36.258Z,0.76
2017-11-13T05:01:36.579Z,0.66
2017-11-13T05:02:36.550Z,0.76
2017-11-13T05:03:36.198Z,0.38
2017-11-13T05:04:36.512Z,0
2017-11-13T05:05:36.160Z,0.09
2017-11-13T05:06:36.471Z,0
2017-11-13T05:07:36.113Z,0
2017-11-13T05:08:36.093Z,0.19
2017-11-13T05:09:36.408Z,0.28
2017-11-13T05:10:36.383Z,0.57
2017-11-13T05:11:36.361Z,0.85
2017-11-13T05:12:36.009Z,0.85
2017-11-13T05:13:36.337Z,1.14
2017-11-13T05:14:35.969Z,1.42
2017-11-13T05:15:36.282Z,1.7
2017-11-13T05:16:35.925Z,1.51
2017-11-13T05:17:36.236Z,1.51
2017-11-13T05:18:36.223Z,1.51
2017-11-13T05:19:36.198Z,1.42
2017-11-13T05:20:35.838Z,1.04
2017-11-13T05:21:36.153Z,0.85
2017-11-13T05:22:36.134Z,0.57
2017-11-13T05:23:36.114Z,0.66
2017-11-13T05:24:35.753Z,0.85
2017-11-13T05:25:35.750Z,0.85
2017-11-13T05:26:36.046Z,0.85
2017-11-13T05:27:36.030Z,0.76
2017-11-13T05:28:36.008Z,0.76
2017-11-13T05:29:35.989Z,0.85
2017-11-13T05:30:36.012Z,0.85
2017-11-13T05:31:35.943Z,0.76
2017-11-13T05:32:35.586Z,0.57
2017-11-13T05:33:35.902Z,0.66
2017-11-13T05:34:35.542Z,0.66
2017-11-13T05:35:35.855Z,0.47
2017-11-13T05:36:35.501Z,0.57
2017-11-13T05:37:35.479Z,0.28
2017-11-13T05:38:35.795Z,0.28
2017-11-13T05:39:35.774Z,0.38
2017-11-13T05:40:35.472Z,0.28
2017-11-13T05:41:35.393Z,0.28
2017-11-13T05:42:35.382Z,0.09
2017-11-13T05:43:35.364Z,0
2017-11-13T05:44:35.333Z,0
2017-11-13T05:45:35.412Z,0
2017-11-13T05:46:35.637Z,0
2017-11-13T05:47:35.272Z,0
2017-11-13T05:48:35.247Z,0
2017-11-13T05:49:35.563Z,0
2017-11-13T05:50:35.594Z,0
2017-11-13T05:51:35.185Z,0
2017-11-13T05:52:35.497Z,0
2017-11-13T05:53:35.487Z,0
2017-11-13T05:54:35.455Z,0
2017-11-13T05:55:35.439Z,0
2017-11-13T05:56:35.413Z,0
2017-11-13T05:57:35.069Z,0
2017-11-13T05:58:35.367Z,0.19
2017-11-13T05:59:35.015Z,0.09
2017-11-13T06:00:35.481Z,0
2017-11-13T06:01:35.307Z,0
2017-11-13T06:02:34.954Z,0
2017-11-13T06:03:35.264Z,0.19
2017-11-13T06:04:35.241Z,0
2017-11-13T06:05:35.225Z,0
2017-11-13T06:06:35.202Z,0.38
2017-11-13T06:07:34.847Z,0.47
2017-11-13T06:08:34.821Z,0.28
2017-11-13T06:09:34.797Z,0.47
2017-11-13T06:10:34.788Z,0.66
2017-11-13T06:11:34.759Z,0.47
2017-11-13T06:12:35.074Z,0.19
2017-11-13T06:13:34.715Z,0.57
2017-11-13T06:14:34.694Z,0.28
2017-11-13T06:15:35.021Z,0.28
2017-11-13T06:16:34.654Z,0.47
2017-11-13T06:17:34.630Z,0
2017-11-13T06:18:34.947Z,0
2017-11-13T06:19:34.923Z,0
2017-11-13T06:20:34.567Z,0
2017-11-13T06:21:34.546Z,0
2017-11-13T06:22:34.862Z,0
2017-11-13T06:23:34.523Z,0
2017-11-13T06:24:34.491Z,0
2017-11-13T06:25:34.460Z,0
2017-11-13T06:26:34.775Z,0
2017-11-13T06:27:34.426Z,0
2017-11-13T06:28:34.400Z,0
2017-11-13T06:29:34.378Z,0
2017-11-13T06:30:34.355Z,0
2017-11-13T06:31:34.343Z,0
2017-11-13T06:32:34.652Z,0
2017-11-13T06:33:34.287Z,0
2017-11-13T06:34:34.616Z,0
2017-11-13T06:35:34.582Z,0
2017-11-13T06:36:34.564Z,0
2017-11-13T06:37:34.541Z,0
2017-11-13T06:38:34.529Z,0
2017-11-13T06:39:34.162Z,0
2017-11-13T06:40:34.476Z,0
2017-11-13T06:41:34.467Z,0
2017-11-13T06:42:34.099Z,0
2017-11-13T06:43:34.422Z,0
2017-11-13T06:44:34.394Z,0
2017-11-13T06:45:34.367Z,0
2017-11-13T06:46:34.350Z,0
2017-11-13T06:47:33.991Z,0
2017-11-13T06:48:33.970Z,0
2017-11-13T06:49:34.286Z,0
2017-11-13T06:50:33.926Z,0
2017-11-13T06:51:34.295Z,0
2017-11-13T06:52:34.230Z,0
2017-11-13T06:53:33.863Z,0
2017-11-13T06:54:34.181Z,0
2017-11-13T06:55:34.161Z,0
2017-11-13T06:56:34.144Z,0
2017-11-13T06:57:33.807Z,0
2017-11-13T06:58:34.124Z,0
2017-11-13T06:59:34.072Z,0
2017-11-13T07:00:33.716Z,0
2017-11-13T07:01:33.697Z,0
2017-11-13T07:02:34.016Z,0
2017-11-13T07:03:33.989Z,0
2017-11-13T07:04:33.632Z,0
2017-11-13T07:05:33.959Z,0
2017-11-13T07:06:33.594Z,0
2017-11-13T07:07:33.570Z,0
2017-11-13T07:08:33.886Z,0
2017-11-13T07:09:33.527Z,0
2017-11-13T07:10:33.508Z,0
2017-11-13T07:11:33.486Z,0.09
2017-11-13T07:12:33.806Z,0
2017-11-13T07:13:33.442Z,0
2017-11-13T07:14:33.425Z,0
2017-11-13T07:15:33.738Z,0
2017-11-13T07:16:33.383Z,0.09
2017-11-13T07:17:33.360Z,0
2017-11-13T07:18:33.684Z,0.19
2017-11-13T07:19:33.313Z,0.09
2017-11-13T07:20:33.295Z,0
2017-11-13T07:21:33.274Z,0
2017-11-13T07:22:33.253Z,0
2017-11-13T07:23:33.235Z,0
2017-11-13T07:24:33.214Z,0
2017-11-13T07:25:33.535Z,0
2017-11-13T07:26:33.507Z,0
2017-11-13T07:27:33.480Z,0
2017-11-13T07:28:33.464Z,0
2017-11-13T07:29:33.104Z,0
2017-11-13T07:30:33.085Z,0.19
2017-11-13T07:31:33.410Z,0.38
2017-11-13T07:32:33.381Z,0
2017-11-13T07:33:33.025Z,0.38
2017-11-13T07:34:33.333Z,0.38
2017-11-13T07:35:32.982Z,0
2017-11-13T07:36:33.296Z,0.09
2017-11-13T07:37:33.331Z,0
2017-11-13T07:38:33.250Z,0
2017-11-13T07:39:32.894Z,0
2017-11-13T07:40:33.217Z,0
2017-11-13T07:41:32.857Z,0
2017-11-13T07:42:32.831Z,0
2017-11-13T07:43:33.155Z,0
2017-11-13T07:44:32.792Z,0
2017-11-13T07:45:32.776Z,0
2017-11-13T07:46:33.088Z,0
2017-11-13T07:47:33.074Z,0
2017-11-13T07:48:33.049Z,0.09
2017-11-13T07:49:33.025Z,0.19
2017-11-13T07:50:33.004Z,0.09
2017-11-13T07:51:32.978Z,0
2017-11-13T07:52:32.965Z,0
2017-11-13T07:53:32.807Z,0.38
2017-11-13T07:54:32.928Z,0.19
2017-11-13T07:55:32.907Z,0
2017-11-13T07:56:32.882Z,0.19
2017-11-13T07:57:32.858Z,0.28
2017-11-13T07:58:32.849Z,0.19
2017-11-13T07:59:32.481Z,0.38
2017-11-13T08:00:32.460Z,0.66
2017-11-13T08:01:32.777Z,0.76
2017-11-13T08:02:32.760Z,0.85
2017-11-13T08:03:32.399Z,1.32
2017-11-13T08:04:32.713Z,1.14
2017-11-13T08:05:32.358Z,1.42
2017-11-13T08:06:32.673Z,1.7
2017-11-13T08:07:32.319Z,1.42
2017-11-13T08:08:32.305Z,1.99
2017-11-13T08:09:32.614Z,2.27
2017-11-13T08:10:32.591Z,2.66
2017-11-13T08:11:32.233Z,2.28
2017-11-13T08:12:32.550Z,3.13
2017-11-13T08:13:32.532Z,3.13
2017-11-13T08:14:32.509Z,3.22
2017-11-13T08:15:32.167Z,3.41
2017-11-13T08:16:32.487Z,3.98
2017-11-13T08:17:32.459Z,4.46
2017-11-13T08:18:32.091Z,4.46
2017-11-13T08:19:32.077Z,5.12
2017-11-13T08:20:32.050Z,5.31
2017-11-13T08:21:32.031Z,5.88
2017-11-13T08:22:32.351Z,6.07
2017-11-13T08:23:32.383Z,6.07
2017-11-13T08:24:32.314Z,6.35
2017-11-13T08:25:32.288Z,6.92
2017-11-13T08:26:31.929Z,7.21
2017-11-13T08:27:31.912Z,7.59
2017-11-13T08:28:31.896Z,7.78
2017-11-13T08:29:32.211Z,7.78
2017-11-13T08:30:31.852Z,9.01
2017-11-13T08:31:32.175Z,8.73
2017-11-13T08:32:32.146Z,9.87
2017-11-13T08:33:32.129Z,10.82
2017-11-13T08:34:32.106Z,11.2
2017-11-13T08:35:32.088Z,13.67
2017-11-13T08:36:32.067Z,15
2017-11-13T08:37:32.045Z,17.37
2017-11-13T08:38:32.027Z,16.61
2017-11-13T08:39:32.020Z,17.66
2017-11-13T08:40:31.654Z,17.75
2017-11-13T08:41:31.631Z,17.56
2017-11-13T08:42:31.612Z,19.27
2017-11-13T08:43:31.592Z,19.65
2017-11-13T08:44:31.569Z,20.5
2017-11-13T08:45:31.553Z,21.17
2017-11-13T08:46:31.534Z,22.12
2017-11-13T08:47:31.513Z,22.12
2017-11-13T08:48:31.495Z,23.64
2017-11-13T08:49:31.817Z,22.6
2017-11-13T08:50:31.458Z,23.35
2017-11-13T08:51:31.436Z,24.11
2017-11-13T08:52:31.756Z,25.25
2017-11-13T08:53:31.399Z,27.15
2017-11-13T08:54:31.713Z,27.81
2017-11-13T08:55:31.697Z,27.34
2017-11-13T08:56:31.684Z,26.77
2017-11-13T08:57:31.657Z,26.48
2017-11-13T08:58:31.636Z,26.48
2017-11-13T08:59:31.281Z,25.82
2017-11-13T09:00:31.601Z,26.1
2017-11-13T09:01:31.577Z,26.58
2017-11-13T09:02:31.557Z,27.25
2017-11-13T09:03:31.544Z,27.34
2017-11-13T09:04:31.529Z,30.76
2017-11-13T09:05:31.164Z,30.19
2017-11-13T09:06:31.488Z,30.87
2017-11-13T09:07:31.469Z,29.53
2017-11-13T09:08:31.446Z,32.77
2017-11-13T09:09:31.090Z,34.09
2017-11-13T09:10:31.404Z,35.42
2017-11-13T09:11:31.059Z,35.61
2017-11-13T09:12:31.367Z,39.23
2017-11-13T09:13:31.014Z,42.65
2017-11-13T09:14:30.994Z,42.55
2017-11-13T09:15:31.310Z,40.25
2017-11-13T09:16:30.954Z,41.22
2017-11-13T09:17:31.269Z,40.84
2017-11-13T09:18:30.917Z,40.84
2017-11-13T09:19:31.298Z,42.08
2017-11-13T09:20:31.214Z,47.52
2017-11-13T09:21:30.862Z,53.22
2017-11-13T09:22:30.849Z,56.16
2017-11-13T09:23:31.158Z,56.16
2017-11-13T09:24:30.805Z,57.4
2017-11-13T09:25:31.121Z,55.4
2017-11-13T09:26:31.105Z,58.44
2017-11-13T09:27:31.084Z,62.94
2017-11-13T09:28:30.734Z,65.6
2017-11-13T09:29:30.714Z,75.02
2017-11-13T09:30:31.036Z,74.44
2017-11-13T09:31:31.026Z,74.26
2017-11-13T09:32:31.000Z,73.11
2017-11-13T09:33:30.977Z,74.35
2017-11-13T09:34:30.964Z,73.02
2017-11-13T09:35:30.940Z,73.4
2017-11-13T09:36:30.921Z,72.83
2017-11-13T09:37:30.922Z,70.93
2017-11-13T09:38:30.552Z,71.02
2017-11-13T09:39:30.536Z,72.83
2017-11-13T09:40:30.856Z,75.59
2017-11-13T09:41:30.496Z,75.78
2017-11-13T09:42:30.819Z,73.97
2017-11-13T09:43:30.798Z,71.5
2017-11-13T09:44:30.781Z,73.78
2017-11-13T09:45:30.425Z,72.03
2017-11-13T09:46:30.407Z,71.27
2017-11-13T09:47:30.725Z,69.46
2017-11-13T09:48:30.710Z,70.83
2017-11-13T09:49:30.704Z,72.45
2017-11-13T09:50:30.678Z,72.45
2017-11-13T09:51:30.655Z,79.33
2017-11-13T09:52:30.308Z,78.48
2017-11-13T09:53:30.823Z,82.28
2017-11-13T09:54:30.607Z,81.52
2017-11-13T09:55:30.588Z,83.9
2017-11-13T09:56:30.233Z,80.1
2017-11-13T09:57:30.558Z,83.37
2017-11-13T09:58:30.539Z,83.56
2017-11-13T09:59:30.537Z,85.47
2017-11-13T10:00:30.501Z,89.18
2017-11-13T10:01:30.151Z,90.8
2017-11-13T10:02:30.482Z,92.99
2017-11-13T10:03:30.458Z,97.46
2017-11-13T10:04:30.098Z,95.56
2017-11-13T10:05:30.085Z,91.75
2017-11-13T10:06:30.076Z,94.32
2017-11-13T10:07:30.390Z,92.22
2017-11-13T10:08:30.371Z,92.32
2017-11-13T10:09:30.362Z,92.65
2017-11-13T10:10:30.344Z,90.56
2017-11-13T10:11:30.321Z,93.13
2017-11-13T10:12:30.305Z,93.13
2017-11-13T10:13:30.295Z,92.65
2017-11-13T10:14:30.273Z,95.12
2017-11-13T10:15:30.256Z,92.56
2017-11-13T10:16:30.243Z,91.13
2017-11-13T10:17:29.893Z,92.56
2017-11-13T10:18:29.870Z,91.13
2017-11-13T10:19:29.861Z,93.79
2017-11-13T10:20:30.241Z,98.6
2017-11-13T10:21:30.159Z,99.99
2017-11-13T10:22:29.806Z,99.99
2017-11-13T10:23:30.127Z,99.99
2017-11-13T10:24:29.777Z,99.99
2017-11-13T10:25:29.760Z,99.99
2017-11-13T10:26:30.082Z,99.99
2017-11-13T10:27:30.069Z,99.99
2017-11-13T10:28:29.714Z,99.99
2017-11-13T10:29:30.034Z,99.99
2017-11-13T10:30:29.680Z,99.99
2017-11-13T10:31:30.010Z,99.99
2017-11-13T10:32:29.986Z,99.99
2017-11-13T10:33:30.004Z,99.99
2017-11-13T10:34:29.616Z,99.99
2017-11-13T10:35:29.942Z,99.99
2017-11-13T10:36:29.588Z,99.99
2017-11-13T10:37:29.914Z,99.99
2017-11-13T10:38:29.893Z,99.99
2017-11-13T10:39:29.880Z,99.99
2017-11-13T10:40:29.529Z,99.99
2017-11-13T10:41:29.521Z,99.99
2017-11-13T10:42:29.841Z,99.99
2017-11-13T10:43:29.825Z,99.99
2017-11-13T10:44:29.810Z,99.99
2017-11-13T10:45:29.482Z,99.99
2017-11-13T10:46:29.448Z,99.99
2017-11-13T10:47:29.768Z,99.99
2017-11-13T10:48:29.754Z,99.99
2017-11-13T10:49:29.742Z,99.99
2017-11-13T10:50:29.781Z,99.99
2017-11-13T10:51:29.716Z,99.99
2017-11-13T10:52:29.727Z,99.99
2017-11-13T10:53:29.355Z,99.99
2017-11-13T10:54:29.680Z,99.99
2017-11-13T10:55:29.663Z,99.99
2017-11-13T10:56:29.313Z,99.99
2017-11-13T10:57:29.306Z,99.99
2017-11-13T10:58:29.631Z,99.99
2017-11-13T10:59:29.277Z,99.99
2017-11-13T11:00:29.662Z,99.99
2017-11-13T11:01:29.596Z,99.99
2017-11-13T11:02:29.574Z,99.99
2017-11-13T11:03:29.578Z,99.99
2017-11-13T11:04:29.554Z,99.99
2017-11-13T11:05:29.206Z,99.99
2017-11-13T11:06:29.190Z,99.99
2017-11-13T11:07:29.517Z,99.99
2017-11-13T11:08:29.171Z,99.99
2017-11-13T11:09:29.494Z,99.99
2017-11-13T11:10:29.535Z,99.99
2017-11-13T11:11:29.470Z,99.99
2017-11-13T11:12:29.123Z,99.99
2017-11-13T11:13:29.446Z,99.99
2017-11-13T11:14:29.434Z,99.99
2017-11-13T11:15:29.423Z,99.99
2017-11-13T11:16:29.078Z,99.99
2017-11-13T11:17:29.065Z,99.99
2017-11-13T11:18:29.053Z,99.99
2017-11-13T11:19:29.384Z,99.99
2017-11-13T11:20:29.038Z,99.99
2017-11-13T11:21:29.353Z,99.99
2017-11-13T11:22:29.343Z,99.99
2017-11-13T11:23:29.007Z,99.99
2017-11-13T11:24:28.982Z,99.99
2017-11-13T11:25:29.310Z,99.99
2017-11-13T11:26:28.958Z,99.99
2017-11-13T11:27:29.278Z,99.99
2017-11-13T11:28:28.933Z,99.99
2017-11-13T11:29:28.921Z,99.99
2017-11-13T11:30:29.244Z,99.99
2017-11-13T11:31:28.893Z,99.99
2017-11-13T11:32:28.882Z,99.99
2017-11-13T11:33:29.217Z,99.99
2017-11-13T11:34:28.863Z,99.99
2017-11-13T11:35:29.177Z,99.99
2017-11-13T11:36:28.829Z,99.99
2017-11-13T11:37:29.162Z,99.99
2017-11-13T11:38:29.149Z,99.99
2017-11-13T11:39:28.788Z,99.99
2017-11-13T11:40:28.775Z,99.99
2017-11-13T11:41:29.102Z,99.99
2017-11-13T11:42:28.747Z,99.99
2017-11-13T11:43:28.745Z,99.99
2017-11-13T11:44:28.719Z,99.99
2017-11-13T11:45:29.060Z,99.99
2017-11-13T11:46:28.692Z,99.99
2017-11-13T11:47:28.681Z,99.99
2017-11-13T11:48:29.005Z,99.99
2017-11-13T11:49:28.990Z,99.99
2017-11-13T11:50:28.672Z,99.99
2017-11-13T11:51:28.676Z,99.99
2017-11-13T11:52:28.952Z,99.99
2017-11-13T11:53:29.146Z,99.99
2017-11-13T11:54:28.589Z,99.99
2017-11-13T11:55:28.577Z,99.99
2017-11-13T11:56:28.905Z,99.99
2017-11-13T11:57:28.890Z,99.99
2017-11-13T11:58:28.876Z,99.99
2017-11-13T11:59:28.535Z,99.99
2017-11-13T12:00:28.864Z,99.99
2017-11-13T12:01:28.510Z,99.99
2017-11-13T12:02:28.500Z,99.99
2017-11-13T12:03:28.496Z,99.99
2017-11-13T12:04:28.819Z,99.99
2017-11-13T12:05:28.812Z,99.99
2017-11-13T12:06:28.799Z,99.99
2017-11-13T12:07:28.793Z,99.99
2017-11-13T12:08:28.452Z,99.99
2017-11-13T12:09:28.440Z,99.99
2017-11-13T12:10:28.774Z,99.99
2017-11-13T12:11:28.759Z,99.99
2017-11-13T12:12:28.761Z,99.99
2017-11-13T12:13:28.744Z,99.99
2017-11-13T12:14:28.741Z,99.99
2017-11-13T12:15:28.397Z,99.99
2017-11-13T12:16:28.399Z,99.99
2017-11-13T12:17:28.382Z,99.99
2017-11-13T12:18:28.380Z,99.99
2017-11-13T12:19:28.705Z,99.99
2017-11-13T12:20:28.363Z,99.99
2017-11-13T12:21:28.356Z,99.99
2017-11-13T12:22:28.692Z,99.99
2017-11-13T12:23:28.347Z,99.99
2017-11-13T12:24:28.674Z,99.99
2017-11-13T12:25:28.672Z,99.99
2017-11-13T12:26:28.326Z,99.99
2017-11-13T12:27:28.321Z,99.99
2017-11-13T12:28:28.655Z,99.99
2017-11-13T12:29:28.649Z,99.99
2017-11-13T12:30:28.641Z,99.99
2017-11-13T12:31:28.300Z,99.99
2017-11-13T12:32:28.346Z,99.99
2017-11-13T12:33:28.634Z,99.99
2017-11-13T12:34:28.282Z,99.99
2017-11-13T12:35:28.614Z,99.99
2017-11-13T12:36:28.267Z,99.99
2017-11-13T12:37:28.261Z,99.99
2017-11-13T12:38:28.591Z,99.99
2017-11-13T12:39:28.250Z,99.99
2017-11-13T12:40:28.243Z,99.99
2017-11-13T12:41:28.573Z,99.99
2017-11-13T12:42:28.576Z,99.99
2017-11-13T12:43:28.579Z,99.99
2017-11-13T12:44:28.220Z,99.99
2017-11-13T12:45:28.552Z,99.99
2017-11-13T12:46:28.213Z,99.99
2017-11-13T12:47:28.204Z,99.99
2017-11-13T12:48:28.202Z,99.99
2017-11-13T12:49:28.197Z,99.99
2017-11-13T12:50:28.544Z,99.99
2017-11-13T12:51:28.193Z,99.99
2017-11-13T12:52:28.516Z,99.99
2017-11-13T12:53:28.545Z,99.99
2017-11-13T12:54:28.169Z,99.99
2017-11-13T12:55:28.163Z,99.99
2017-11-13T12:56:28.492Z,99.99
2017-11-13T12:57:28.153Z,99.99
2017-11-13T12:58:28.143Z,99.99
2017-11-13T12:59:28.475Z,99.99
2017-11-13T13:00:28.133Z,99.99
2017-11-13T13:01:28.462Z,99.99
2017-11-13T13:02:28.451Z,99.99
2017-11-13T13:03:28.445Z,99.99
2017-11-13T13:04:28.438Z,99.99
2017-11-13T13:05:28.430Z,99.99
2017-11-13T13:06:28.432Z,99.99
2017-11-13T13:07:28.077Z,99.99
2017-11-13T13:08:28.080Z,99.99
2017-11-13T13:09:28.404Z,99.99
2017-11-13T13:10:28.059Z,99.99
2017-11-13T13:11:28.390Z,99.99
2017-11-13T13:12:28.382Z,99.99
2017-11-13T13:13:28.373Z,99.99
2017-11-13T13:14:28.368Z,99.99
2017-11-13T13:15:28.355Z,99.99
2017-11-13T13:16:28.352Z,99.99
2017-11-13T13:17:28.342Z,99.99
2017-11-13T13:18:28.335Z,99.99
2017-11-13T13:19:28.330Z,99.99
2017-11-13T13:20:28.336Z,99.99
2017-11-13T13:21:28.316Z,99.99
2017-11-13T13:22:28.305Z,99.99
2017-11-13T13:23:27.957Z,99.99
2017-11-13T13:24:27.954Z,99.99
2017-11-13T13:25:27.955Z,99.99